Wetterdaten: Woche 27.07.09 - 02.08.09 (KW31)
Datum Zeit Temperatur Luftfeuchte Luftdruck Niederschlag Wind Richtung Sonnenschein Solar Taupunkt Windchill Windben
27.07.2009 00:00 14.8 C 82 % 1017.4 hPa 0.0 l/m 0.6 km/h (0 Bft) O-NO 0.00 h 0 W/m 11.8 C 14.8 C 1.4 km/h (1 Bft)
27.07.2009 01:00 13.7 C 87 % 1017.2 hPa 0.0 l/m 1.2 km/h (1 Bft) O-NO 0.00 h 0 W/m 11.5 C 13.7 C 2.4 km/h (1 Bft)
27.07.2009 02:00 13.0 C 89 % 1016.9 hPa 0.0 l/m 1.0 km/h (0 Bft) O-NO 0.00 h 0 W/m 11.2 C 13.0 C 1.8 km/h (1 Bft)
27.07.2009 03:00 12.4 C 91 % 1016.7 hPa 0.0 l/m 2.8 km/h (1 Bft) O-NO 0.00 h 0 W/m 11.0 C 12.4 C 3.9 km/h (1 Bft)
27.07.2009 04:00 11.9 C 93 % 1016.5 hPa 0.0 l/m 0.1 km/h (0 Bft) O-NO 0.00 h 0 W/m 10.8 C 11.9 C 0.8 km/h (0 Bft)
27.07.2009 05:00 11.4 C 93 % 1016.2 hPa 0.0 l/m 1.0 km/h (0 Bft) O-NO 0.00 h 0 W/m 10.3 C 11.4 C 2.0 km/h (1 Bft)
27.07.2009 06:00 11.1 C 95 % 1016.1 hPa 0.0 l/m 0.2 km/h (0 Bft) O-NO 0.02 h 16 W/m 10.2 C 11.1 C 0.8 km/h (0 Bft)
27.07.2009 07:00 11.6 C 96 % 1015.9 hPa 0.0 l/m 0.1 km/h (0 Bft) O-NO 0.57 h 118 W/m 11.1 C 11.6 C 0.3 km/h (0 Bft)
27.07.2009 08:00 15.3 C 90 % 1015.7 hPa 0.0 l/m 0.1 km/h (0 Bft) O-NO 1.00 h 309 W/m 13.7 C 15.3 C 1.0 km/h (0 Bft)
27.07.2009 09:00 18.1 C 77 % 1015.3 hPa 0.0 l/m 0.6 km/h (0 Bft) NW 1.00 h 474 W/m 14.0 C 18.1 C 1.7 km/h (1 Bft)
27.07.2009 10:00 21.2 C 69 % 1014.5 hPa 0.0 l/m 1.5 km/h (1 Bft) NW 1.00 h 622 W/m 15.2 C 21.2 C 3.7 km/h (1 Bft)
27.07.2009 11:00 23.9 C 61 % 1013.8 hPa 0.0 l/m 1.2 km/h (1 Bft) W 1.00 h 737 W/m 16.0 C 23.9 C 3.4 km/h (1 Bft)
27.07.2009 12:00 25.6 C 53 % 1013.0 hPa 0.0 l/m 1.8 km/h (1 Bft) O-SO 1.00 h 811 W/m 15.3 C 25.6 C 4.2 km/h (1 Bft)
27.07.2009 13:00 27.6 C 51 % 1012.3 hPa 0.0 l/m 2.4 km/h (1 Bft) W-SW 1.00 h 836 W/m 16.5 C 27.6 C 4.9 km/h (1 Bft)
27.07.2009 14:00 29.0 C 45 % 1011.8 hPa 0.0 l/m 3.8 km/h (1 Bft) W-SW 1.00 h 823 W/m 15.7 C 29.0 C 7.6 km/h (2 Bft)
27.07.2009 15:00 28.8 C 42 % 1011.5 hPa 0.0 l/m 3.5 km/h (1 Bft) W 0.57 h 477 W/m 14.5 C 28.8 C 6.7 km/h (2 Bft)
27.07.2009 16:00 27.3 C 47 % 1011.2 hPa 0.0 l/m 1.7 km/h (1 Bft) S-SO 0.13 h 241 W/m 15.0 C 27.3 C 3.6 km/h (1 Bft)
27.07.2009 17:00 28.4 C 50 % 1011.1 hPa 0.0 l/m 2.4 km/h (1 Bft) W-NW 0.63 h 445 W/m 17.0 C 28.4 C 4.3 km/h (1 Bft)
27.07.2009 18:00 27.3 C 54 % 1011.9 hPa 0.0 l/m 2.2 km/h (1 Bft) W 0.53 h 262 W/m 17.2 C 27.3 C 4.3 km/h (1 Bft)
27.07.2009 19:00 27.4 C 50 % 1011.7 hPa 0.0 l/m 4.6 km/h (1 Bft) W-NW 0.40 h 132 W/m 16.0 C 27.4 C 7.3 km/h (2 Bft)
27.07.2009 20:00 26.0 C 51 % 1012.0 hPa 0.0 l/m 3.6 km/h (1 Bft) W-NW 0.00 h 18 W/m 14.9 C 26.0 C 6.6 km/h (2 Bft)
27.07.2009 21:00 22.1 C 74 % 1013.6 hPa 3.4 l/m 7.6 km/h (2 Bft) W 0.00 h 0 W/m 17.0 C 22.1 C 11.9 km/h (2 Bft)
27.07.2009 22:00 19.1 C 89 % 1014.8 hPa 0.6 l/m 1.5 km/h (1 Bft) O-SO 0.00 h 0 W/m 17.3 C 19.1 C 2.7 km/h (1 Bft)
27.07.2009 23:00 18.7 C 94 % 1016.0 hPa 2.4 l/m 2.6 km/h (1 Bft) O-SO 0.00 h 0 W/m 17.7 C 18.7 C 4.7 km/h (1 Bft)
28.07.2009 00:00 18.2 C 95 % 1016.5 hPa 3.2 l/m 3.3 km/h (1 Bft) S-SO 0.00 h 0 W/m 17.4 C 18.2 C 7.1 km/h (2 Bft)
28.07.2009 01:00 17.7 C 96 % 1016.9 hPa 0.0 l/m 5.2 km/h (1 Bft) W-SW 0.00 h 0 W/m 17.1 C 17.7 C 10.3 km/h (2 Bft)
28.07.2009 02:00 17.4 C 97 % 1017.8 hPa 0.0 l/m 9.1 km/h (2 Bft) W 0.00 h 0 W/m 16.9 C 17.4 C 16.2 km/h (3 Bft)
28.07.2009 03:00 16.2 C 97 % 1018.4 hPa 0.0 l/m 8.3 km/h (2 Bft) W 0.00 h 0 W/m 15.6 C 16.2 C 14.8 km/h (3 Bft)
28.07.2009 04:00 15.4 C 96 % 1019.2 hPa 0.0 l/m 11.7 km/h (2 Bft) W 0.00 h 0 W/m 14.8 C 15.4 C 19.7 km/h (3 Bft)
28.07.2009 05:00 15.1 C 95 % 1019.7 hPa 0.0 l/m 3.3 km/h (1 Bft) O 0.00 h 0 W/m 14.3 C 15.1 C 6.8 km/h (2 Bft)
28.07.2009 06:00 14.9 C 94 % 1020.1 hPa 0.0 l/m 1.0 km/h (0 Bft) O-NO 0.00 h 18 W/m 13.9 C 14.9 C 2.3 km/h (1 Bft)
28.07.2009 07:00 15.1 C 95 % 1020.5 hPa 0.0 l/m 1.6 km/h (1 Bft) O-SO 0.55 h 114 W/m 14.3 C 15.1 C 3.3 km/h (1 Bft)
28.07.2009 08:00 17.5 C 88 % 1020.6 hPa 0.0 l/m 0.5 km/h (0 Bft) O-SO 1.00 h 301 W/m 15.5 C 17.5 C 1.9 km/h (1 Bft)
28.07.2009 09:00 18.7 C 79 % 1021.0 hPa 0.0 l/m 1.4 km/h (1 Bft) W 0.75 h 388 W/m 15.1 C 18.7 C 3.1 km/h (1 Bft)
28.07.2009 10:00 20.3 C 75 % 1021.1 hPa 0.0 l/m 3.0 km/h (1 Bft) N-NO 0.95 h 620 W/m 15.7 C 20.3 C 5.7 km/h (1 Bft)
28.07.2009 11:00 20.3 C 70 % 1020.9 hPa 0.0 l/m 1.6 km/h (1 Bft) W-NW 0.45 h 449 W/m 14.6 C 20.3 C 3.2 km/h (1 Bft)
28.07.2009 12:00 22.0 C 65 % 1020.6 hPa 0.0 l/m 2.6 km/h (1 Bft) O-SO 1.00 h 848 W/m 15.2 C 22.0 C 4.9 km/h (1 Bft)
28.07.2009 13:00 22.9 C 59 % 1020.2 hPa 0.0 l/m 2.2 km/h (1 Bft) O-SO 1.00 h 800 W/m 14.5 C 22.9 C 4.4 km/h (1 Bft)
28.07.2009 14:00 23.6 C 57 % 1019.6 hPa 0.0 l/m 2.7 km/h (1 Bft) W-NW 0.98 h 839 W/m 14.5 C 23.6 C 4.9 km/h (1 Bft)
28.07.2009 15:00 24.1 C 54 % 1019.3 hPa 0.0 l/m 1.5 km/h (1 Bft) W 0.83 h 687 W/m 14.3 C 24.1 C 3.7 km/h (1 Bft)
28.07.2009 16:00 25.0 C 52 % 1019.2 hPa 0.0 l/m 3.2 km/h (1 Bft) W-NW 0.97 h 638 W/m 14.3 C 25.0 C 5.9 km/h (2 Bft)
28.07.2009 17:00 25.6 C 49 % 1018.7 hPa 0.0 l/m 2.3 km/h (1 Bft) W-SW 1.00 h 503 W/m 14.0 C 25.6 C 4.6 km/h (1 Bft)
28.07.2009 18:00 25.1 C 49 % 1018.7 hPa 0.0 l/m 2.1 km/h (1 Bft) W-NW 1.00 h 343 W/m 13.8 C 25.1 C 4.0 km/h (1 Bft)
28.07.2009 19:00 24.5 C 50 % 1018.7 hPa 0.0 l/m 0.7 km/h (0 Bft) W-SW 1.00 h 178 W/m 13.3 C 24.5 C 2.1 km/h (1 Bft)
28.07.2009 20:00 23.1 C 59 % 1018.8 hPa 0.0 l/m 1.9 km/h (1 Bft) SO 0.15 h 36 W/m 14.6 C 23.1 C 3.6 km/h (1 Bft)
28.07.2009 21:00 20.7 C 69 % 1019.3 hPa 0.0 l/m 1.0 km/h (0 Bft) SO 0.00 h 6 W/m 14.8 C 20.7 C 2.0 km/h (1 Bft)
28.07.2009 22:00 18.6 C 76 % 1019.7 hPa 0.0 l/m 0.1 km/h (0 Bft) SO 0.00 h 0 W/m 14.4 C 18.6 C 0.3 km/h (0 Bft)
28.07.2009 23:00 17.4 C 83 % 1019.8 hPa 0.0 l/m 0.1 km/h (0 Bft) SO 0.00 h 0 W/m 14.4 C 17.4 C 0.5 km/h (0 Bft)
29.07.2009 00:00 16.2 C 87 % 1019.7 hPa 0.0 l/m 0.2 km/h (0 Bft) SO 0.00 h 0 W/m 14.0 C 16.2 C 0.5 km/h (0 Bft)
29.07.2009 01:00 15.3 C 90 % 1019.8 hPa 0.0 l/m 0.6 km/h (0 Bft) SO 0.00 h 0 W/m 13.6 C 15.3 C 1.1 km/h (1 Bft)
29.07.2009 02:00 14.6 C 91 % 1019.7 hPa 0.0 l/m 0.1 km/h (0 Bft) SO 0.00 h 0 W/m 13.2 C 14.6 C 0.3 km/h (0 Bft)
29.07.2009 03:00 14.0 C 93 % 1019.6 hPa 0.0 l/m 0.1 km/h (0 Bft) SO 0.00 h 0 W/m 12.9 C 14.0 C 0.6 km/h (0 Bft)
29.07.2009 04:00 13.5 C 94 % 1019.4 hPa 0.0 l/m 0.1 km/h (0 Bft) SO 0.00 h 0 W/m 12.5 C 13.5 C 0.3 km/h (0 Bft)
29.07.2009 05:00 12.9 C 95 % 1019.3 hPa 0.0 l/m 0.0 km/h (0 Bft) N 0.00 h 0 W/m 12.2 C 12.9 C 0.0 km/h (0 Bft)
29.07.2009 06:00 12.6 C 96 % 1019.3 hPa 0.0 l/m 0.1 km/h (0 Bft) SO 0.00 h 19 W/m 12.0 C 12.6 C 0.6 km/h (0 Bft)
29.07.2009 07:00 13.1 C 97 % 1019.5 hPa 0.0 l/m 0.0 km/h (0 Bft) N 0.55 h 114 W/m 12.6 C 13.1 C 0.2 km/h (0 Bft)
29.07.2009 08:00 16.5 C 93 % 1019.3 hPa 0.0 l/m 0.7 km/h (0 Bft) N 1.00 h 303 W/m 15.3 C 16.5 C 1.7 km/h (1 Bft)
29.07.2009 09:00 19.2 C 78 % 1019.1 hPa 0.0 l/m 1.5 km/h (1 Bft) N-NW 1.00 h 466 W/m 15.3 C 19.2 C 3.4 km/h (1 Bft)
29.07.2009 10:00 21.4 C 72 % 1018.6 hPa 0.0 l/m 2.1 km/h (1 Bft) W-NW 1.00 h 612 W/m 16.0 C 21.4 C 3.9 km/h (1 Bft)
29.07.2009 11:00 23.2 C 67 % 1018.0 hPa 0.0 l/m 2.7 km/h (1 Bft) W-NW 1.00 h 730 W/m 16.7 C 23.2 C 4.8 km/h (1 Bft)
29.07.2009 12:00 24.6 C 63 % 1017.5 hPa 0.0 l/m 1.8 km/h (1 Bft) SO 1.00 h 812 W/m 17.1 C 24.6 C 4.0 km/h (1 Bft)
29.07.2009 13:00 26.0 C 57 % 1016.9 hPa 0.0 l/m 2.0 km/h (1 Bft) W 1.00 h 843 W/m 16.6 C 26.0 C 4.2 km/h (1 Bft)
29.07.2009 14:00 26.9 C 51 % 1016.1 hPa 0.0 l/m 1.7 km/h (1 Bft) W-NW 1.00 h 820 W/m 15.8 C 26.9 C 3.6 km/h (1 Bft)
29.07.2009 15:00 27.6 C 47 % 1015.4 hPa 0.0 l/m 1.8 km/h (1 Bft) O-SO 1.00 h 749 W/m 15.1 C 27.6 C 3.8 km/h (1 Bft)
29.07.2009 16:00 28.2 C 44 % 1015.0 hPa 0.0 l/m 2.1 km/h (1 Bft) O-SO 1.00 h 645 W/m 14.8 C 28.2 C 4.0 km/h (1 Bft)
29.07.2009 17:00 28.7 C 41 % 1014.6 hPa 0.0 l/m 1.2 km/h (1 Bft) SO 1.00 h 502 W/m 14.1 C 28.7 C 3.1 km/h (1 Bft)
29.07.2009 18:00 28.9 C 42 % 1014.3 hPa 0.0 l/m 1.3 km/h (1 Bft) W-NW 1.00 h 336 W/m 14.6 C 28.9 C 2.6 km/h (1 Bft)
29.07.2009 19:00 28.4 C 49 % 1014.1 hPa 0.0 l/m 0.9 km/h (0 Bft) W 1.00 h 174 W/m 16.7 C 28.4 C 2.3 km/h (1 Bft)
29.07.2009 20:00 25.7 C 62 % 1014.4 hPa 0.0 l/m 1.1 km/h (1 Bft) O-SO 0.03 h 31 W/m 17.7 C 25.7 C 2.0 km/h (1 Bft)
29.07.2009 21:00 22.5 C 69 % 1014.6 hPa 0.0 l/m 4.8 km/h (1 Bft) O-SO 0.00 h 5 W/m 16.5 C 22.5 C 6.6 km/h (2 Bft)
29.07.2009 22:00 20.3 C 74 % 1014.7 hPa 0.0 l/m 2.2 km/h (1 Bft) O-SO 0.00 h 0 W/m 15.4 C 20.3 C 3.2 km/h (1 Bft)
29.07.2009 23:00 19.0 C 80 % 1014.6 hPa 0.0 l/m 2.0 km/h (1 Bft) SO 0.00 h 0 W/m 15.4 C 19.0 C 3.1 km/h (1 Bft)
30.07.2009 00:00 17.9 C 83 % 1014.3 hPa 0.0 l/m 0.7 km/h (0 Bft) SO 0.00 h 0 W/m 15.0 C 17.9 C 1.6 km/h (1 Bft)
30.07.2009 01:00 17.4 C 86 % 1014.1 hPa 0.0 l/m 1.1 km/h (1 Bft) SO 0.00 h 0 W/m 15.0 C 17.4 C 2.0 km/h (1 Bft)
30.07.2009 02:00 17.3 C 87 % 1014.2 hPa 0.0 l/m 2.5 km/h (1 Bft) SO 0.00 h 0 W/m 15.1 C 17.3 C 3.9 km/h (1 Bft)
30.07.2009 03:00 17.0 C 89 % 1014.9 hPa 0.0 l/m 1.4 km/h (1 Bft) SO 0.00 h 0 W/m 15.3 C 17.0 C 2.7 km/h (1 Bft)
30.07.2009 04:00 18.6 C 81 % 1015.7 hPa 0.0 l/m 16.4 km/h (3 Bft) W 0.00 h 0 W/m 15.3 C 18.6 C 25.5 km/h (4 Bft)
30.07.2009 05:00 21.1 C 68 % 1016.8 hPa 0.0 l/m 14.3 km/h (3 Bft) W 0.00 h 0 W/m 14.9 C 21.1 C 22.7 km/h (4 Bft)
30.07.2009 06:00 20.7 C 68 % 1017.7 hPa 0.0 l/m 12.3 km/h (3 Bft) W 0.00 h 24 W/m 14.6 C 20.7 C 19.4 km/h (3 Bft)
30.07.2009 07:00 20.3 C 66 % 1018.7 hPa 0.0 l/m 16.5 km/h (3 Bft) W 0.37 h 107 W/m 13.7 C 20.3 C 25.5 km/h (4 Bft)
30.07.2009 08:00 20.2 C 64 % 1019.6 hPa 0.0 l/m 15.2 km/h (3 Bft) W 0.25 h 144 W/m 13.3 C 20.2 C 23.9 km/h (4 Bft)
30.07.2009 09:00 20.1 C 67 % 1020.9 hPa 0.0 l/m 12.2 km/h (2 Bft) W 0.33 h 293 W/m 13.8 C 20.1 C 20.0 km/h (4 Bft)
30.07.2009 10:00 20.6 C 63 % 1021.5 hPa 0.0 l/m 13.8 km/h (3 Bft) W 0.78 h 515 W/m 13.4 C 20.6 C 21.8 km/h (4 Bft)
30.07.2009 11:00 21.1 C 62 % 1021.9 hPa 0.0 l/m 11.8 km/h (2 Bft) W 0.23 h 397 W/m 13.5 C 21.1 C 19.0 km/h (3 Bft)
30.07.2009 12:00 21.0 C 62 % 1022.0 hPa 0.0 l/m 11.2 km/h (2 Bft) W 0.28 h 417 W/m 13.3 C 21.0 C 18.5 km/h (3 Bft)
30.07.2009 13:00 21.2 C 60 % 1022.2 hPa 0.0 l/m 11.4 km/h (2 Bft) W 0.07 h 362 W/m 13.1 C 21.2 C 17.4 km/h (3 Bft)
30.07.2009 14:00 21.5 C 56 % 1021.9 hPa 0.0 l/m 10.7 km/h (2 Bft) W 0.07 h 361 W/m 12.4 C 21.5 C 17.3 km/h (3 Bft)
30.07.2009 15:00 21.8 C 54 % 1021.8 hPa 0.0 l/m 11.1 km/h (2 Bft) W 0.40 h 372 W/m 12.0 C 21.8 C 17.9 km/h (3 Bft)
30.07.2009 16:00 23.0 C 52 % 1021.2 hPa 0.0 l/m 9.3 km/h (2 Bft) W 0.85 h 603 W/m 12.6 C 23.0 C 14.9 km/h (3 Bft)
30.07.2009 17:00 23.4 C 49 % 1021.2 hPa 0.0 l/m 10.8 km/h (2 Bft) W 0.48 h 377 W/m 12.1 C 23.4 C 17.5 km/h (3 Bft)
30.07.2009 18:00 23.9 C 49 % 1021.2 hPa 0.0 l/m 7.0 km/h (2 Bft) W 1.00 h 385 W/m 12.5 C 23.9 C 11.5 km/h (2 Bft)
30.07.2009 19:00 23.9 C 47 % 1021.2 hPa 0.0 l/m 5.9 km/h (2 Bft) W-NW 1.00 h 175 W/m 11.8 C 23.9 C 9.7 km/h (2 Bft)
30.07.2009 20:00 22.6 C 53 % 1021.4 hPa 0.0 l/m 2.2 km/h (1 Bft) W-SW 0.42 h 39 W/m 12.6 C 22.6 C 4.6 km/h (1 Bft)
30.07.2009 21:00 20.3 C 61 % 1022.0 hPa 0.0 l/m 0.5 km/h (0 Bft) S 0.00 h 5 W/m 12.5 C 20.3 C 1.8 km/h (1 Bft)
30.07.2009 22:00 18.7 C 66 % 1022.5 hPa 0.0 l/m 0.9 km/h (0 Bft) O 0.00 h 0 W/m 12.3 C 18.7 C 2.5 km/h (1 Bft)
30.07.2009 23:00 18.0 C 67 % 1022.6 hPa 0.0 l/m 1.0 km/h (0 Bft) N-NW 0.00 h 0 W/m 11.9 C 18.0 C 2.7 km/h (1 Bft)
31.07.2009 00:00 17.3 C 70 % 1022.9 hPa 0.0 l/m 0.4 km/h (0 Bft) N-NW 0.00 h 0 W/m 11.7 C 17.3 C 1.5 km/h (1 Bft)
31.07.2009 01:00 16.2 C 75 % 1023.2 hPa 0.0 l/m 0.5 km/h (0 Bft) O 0.00 h 0 W/m 11.7 C 16.2 C 1.5 km/h (1 Bft)
31.07.2009 02:00 15.4 C 80 % 1023.2 hPa 0.0 l/m 0.2 km/h (0 Bft) O 0.00 h 0 W/m 12.0 C 15.4 C 0.7 km/h (0 Bft)
31.07.2009 03:00 15.2 C 80 % 1022.8 hPa 0.0 l/m 0.1 km/h (0 Bft) O 0.00 h 0 W/m 11.8 C 15.2 C 0.5 km/h (0 Bft)
31.07.2009 04:00 15.0 C 79 % 1022.5 hPa 0.0 l/m 0.1 km/h (0 Bft) O 0.00 h 0 W/m 11.3 C 15.0 C 1.0 km/h (0 Bft)
31.07.2009 05:00 14.8 C 80 % 1022.4 hPa 0.0 l/m 0.3 km/h (0 Bft) O 0.00 h 0 W/m 11.5 C 14.8 C 0.9 km/h (0 Bft)
31.07.2009 06:00 14.6 C 77 % 1022.4 hPa 0.0 l/m 1.0 km/h (0 Bft) N-NO 0.00 h 23 W/m 10.5 C 14.6 C 2.7 km/h (1 Bft)
31.07.2009 07:00 15.1 C 71 % 1021.8 hPa 0.0 l/m 2.1 km/h (1 Bft) N 0.23 h 100 W/m 9.9 C 15.1 C 4.9 km/h (1 Bft)
31.07.2009 08:00 16.6 C 67 % 1021.7 hPa 0.0 l/m 0.9 km/h (0 Bft) O-NO 0.32 h 204 W/m 10.3 C 16.6 C 2.6 km/h (1 Bft)
31.07.2009 09:00 17.9 C 63 % 1021.2 hPa 0.0 l/m 3.2 km/h (1 Bft) N-NO 0.87 h 341 W/m 10.8 C 17.9 C 7.2 km/h (2 Bft)
31.07.2009 10:00 19.3 C 60 % 1020.8 hPa 0.0 l/m 4.0 km/h (1 Bft) O-SO 0.95 h 505 W/m 11.2 C 19.3 C 8.1 km/h (2 Bft)
31.07.2009 11:00 20.2 C 57 % 1020.3 hPa 0.0 l/m 5.3 km/h (1 Bft) O-SO 1.00 h 638 W/m 11.3 C 20.2 C 10.6 km/h (2 Bft)
31.07.2009 12:00 21.4 C 57 % 1019.9 hPa 0.0 l/m 4.0 km/h (1 Bft) O-SO 0.98 h 653 W/m 12.6 C 21.4 C 8.4 km/h (2 Bft)
31.07.2009 13:00 22.2 C 56 % 1019.5 hPa 0.0 l/m 4.2 km/h (1 Bft) N-NO 0.98 h 708 W/m 13.0 C 22.2 C 8.9 km/h (2 Bft)
31.07.2009 14:00 23.4 C 54 % 1018.9 hPa 0.0 l/m 4.9 km/h (1 Bft) O-SO 1.00 h 797 W/m 13.6 C 23.4 C 9.4 km/h (2 Bft)
31.07.2009 15:00 23.9 C 55 % 1018.5 hPa 0.0 l/m 3.8 km/h (1 Bft) O-SO 1.00 h 625 W/m 14.2 C 23.9 C 7.2 km/h (2 Bft)
31.07.2009 16:00 23.9 C 55 % 1018.2 hPa 0.0 l/m 5.9 km/h (2 Bft) O-SO 1.00 h 578 W/m 14.4 C 23.9 C 10.7 km/h (2 Bft)
31.07.2009 17:00 23.7 C 56 % 1017.9 hPa 0.0 l/m 6.1 km/h (2 Bft) O-SO 0.98 h 413 W/m 14.3 C 23.7 C 9.7 km/h (2 Bft)
31.07.2009 18:00 23.3 C 58 % 1017.7 hPa 0.0 l/m 3.9 km/h (1 Bft) O-SO 1.00 h 278 W/m 14.6 C 23.3 C 6.6 km/h (2 Bft)
31.07.2009 19:00 23.0 C 58 % 1017.4 hPa 0.0 l/m 3.3 km/h (1 Bft) O-SO 0.53 h 141 W/m 14.4 C 23.0 C 6.1 km/h (2 Bft)
31.07.2009 20:00 22.1 C 62 % 1017.2 hPa 0.0 l/m 1.2 km/h (1 Bft) O 0.20 h 35 W/m 14.5 C 22.1 C 2.8 km/h (1 Bft)
31.07.2009 21:00 20.3 C 70 % 1017.2 hPa 0.0 l/m 1.1 km/h (0 Bft) O 0.00 h 6 W/m 14.6 C 20.3 C 2.0 km/h (1 Bft)
31.07.2009 22:00 18.6 C 76 % 1017.4 hPa 0.0 l/m 0.6 km/h (0 Bft) O 0.00 h 0 W/m 14.4 C 18.6 C 1.2 km/h (1 Bft)
31.07.2009 23:00 17.8 C 82 % 1017.2 hPa 0.0 l/m 0.2 km/h (0 Bft) O 0.00 h 0 W/m 14.6 C 17.8 C 0.7 km/h (0 Bft)
01.08.2009 00:00 17.1 C 85 % 1017.1 hPa 0.0 l/m 0.3 km/h (0 Bft) O 0.00 h 0 W/m 14.6 C 17.1 C 0.9 km/h (0 Bft)
01.08.2009 01:00 16.4 C 87 % 1016.9 hPa 0.0 l/m 0.1 km/h (0 Bft) O 0.00 h 0 W/m 14.2 C 16.4 C 0.3 km/h (0 Bft)
01.08.2009 02:00 15.5 C 89 % 1016.5 hPa 0.0 l/m 1.1 km/h (0 Bft) O 0.00 h 0 W/m 13.7 C 15.5 C 2.3 km/h (1 Bft)
01.08.2009 03:00 14.6 C 91 % 1016.4 hPa 0.0 l/m 0.3 km/h (0 Bft) O 0.00 h 0 W/m 13.2 C 14.6 C 1.4 km/h (1 Bft)
01.08.2009 04:00 14.0 C 93 % 1016.3 hPa 0.0 l/m 0.9 km/h (0 Bft) O 0.00 h 0 W/m 12.9 C 14.0 C 1.9 km/h (1 Bft)
01.08.2009 05:00 13.3 C 94 % 1016.2 hPa 0.0 l/m 0.4 km/h (0 Bft) O 0.00 h 0 W/m 12.3 C 13.3 C 1.3 km/h (1 Bft)
01.08.2009 06:00 13.1 C 95 % 1016.3 hPa 0.0 l/m 0.2 km/h (0 Bft) O 0.03 h 29 W/m 12.4 C 13.1 C 0.8 km/h (0 Bft)
01.08.2009 07:00 13.8 C 97 % 1016.2 hPa 0.0 l/m 0.0 km/h (0 Bft) N 0.47 h 114 W/m 13.3 C 13.8 C 0.2 km/h (0 Bft)
01.08.2009 08:00 16.8 C 93 % 1015.9 hPa 0.0 l/m 0.3 km/h (0 Bft) O 0.92 h 302 W/m 15.6 C 16.8 C 1.3 km/h (1 Bft)
01.08.2009 09:00 19.3 C 78 % 1015.4 hPa 0.0 l/m 0.8 km/h (0 Bft) O-NO 0.65 h 388 W/m 15.3 C 19.3 C 2.4 km/h (1 Bft)
01.08.2009 10:00 21.0 C 74 % 1014.8 hPa 0.0 l/m 1.1 km/h (0 Bft) SO 0.93 h 617 W/m 16.2 C 21.0 C 2.9 km/h (1 Bft)
01.08.2009 11:00 23.0 C 69 % 1014.1 hPa 0.0 l/m 1.8 km/h (1 Bft) SO 1.00 h 712 W/m 17.0 C 23.0 C 3.9 km/h (1 Bft)
01.08.2009 12:00 24.9 C 62 % 1013.3 hPa 0.0 l/m 1.7 km/h (1 Bft) S-SO 1.00 h 797 W/m 17.1 C 24.9 C 3.9 km/h (1 Bft)
01.08.2009 13:00 26.3 C 51 % 1012.7 hPa 0.0 l/m 1.7 km/h (1 Bft) SO 1.00 h 829 W/m 15.4 C 26.3 C 3.9 km/h (1 Bft)
01.08.2009 14:00 27.6 C 49 % 1012.0 hPa 0.0 l/m 2.0 km/h (1 Bft) O-SO 1.00 h 811 W/m 15.8 C 27.6 C 4.6 km/h (1 Bft)
01.08.2009 15:00 28.7 C 43 % 1011.2 hPa 0.0 l/m 3.1 km/h (1 Bft) W 1.00 h 743 W/m 14.9 C 28.7 C 5.3 km/h (1 Bft)
01.08.2009 16:00 29.0 C 43 % 1010.7 hPa 0.0 l/m 2.4 km/h (1 Bft) NW 1.00 h 634 W/m 15.3 C 29.0 C 4.7 km/h (1 Bft)
01.08.2009 17:00 29.0 C 43 % 1010.2 hPa 0.0 l/m 3.0 km/h (1 Bft) O-SO 1.00 h 494 W/m 15.1 C 29.0 C 5.2 km/h (1 Bft)
01.08.2009 18:00 28.7 C 45 % 1009.7 hPa 0.0 l/m 3.7 km/h (1 Bft) O-SO 1.00 h 332 W/m 15.4 C 28.7 C 5.7 km/h (1 Bft)
01.08.2009 19:00 28.0 C 49 % 1009.2 hPa 0.0 l/m 3.6 km/h (1 Bft) O-SO 0.98 h 179 W/m 16.1 C 28.0 C 5.6 km/h (1 Bft)
01.08.2009 20:00 26.3 C 54 % 1008.9 hPa 0.0 l/m 6.6 km/h (2 Bft) O-SO 0.22 h 33 W/m 16.1 C 26.3 C 8.7 km/h (2 Bft)
01.08.2009 21:00 24.3 C 63 % 1008.8 hPa 0.0 l/m 0.6 km/h (0 Bft) O 0.00 h 0 W/m 16.8 C 24.3 C 1.2 km/h (1 Bft)
01.08.2009 22:00 22.2 C 71 % 1008.8 hPa 0.0 l/m 0.5 km/h (0 Bft) O-NO 0.00 h 0 W/m 16.6 C 22.2 C 1.6 km/h (1 Bft)
01.08.2009 23:00 20.8 C 75 % 1008.5 hPa 0.0 l/m 0.5 km/h (0 Bft) N-NO 0.00 h 0 W/m 16.1 C 20.8 C 1.4 km/h (1 Bft)
02.08.2009 00:00 19.7 C 78 % 1008.4 hPa 0.0 l/m 0.9 km/h (0 Bft) N-NO 0.00 h 0 W/m 15.8 C 19.7 C 2.2 km/h (1 Bft)
02.08.2009 01:00 18.6 C 83 % 1008.0 hPa 0.0 l/m 0.7 km/h (0 Bft) O 0.00 h 0 W/m 15.6 C 18.6 C 2.1 km/h (1 Bft)
02.08.2009 02:00 17.7 C 85 % 1007.8 hPa 0.0 l/m 0.1 km/h (0 Bft) NW 0.00 h 0 W/m 15.1 C 17.7 C 0.5 km/h (0 Bft)
02.08.2009 03:00 17.6 C 86 % 1008.3 hPa 0.0 l/m 2.5 km/h (1 Bft) N 0.00 h 0 W/m 15.2 C 17.6 C 4.7 km/h (1 Bft)
02.08.2009 04:00 17.9 C 87 % 1009.2 hPa 0.0 l/m 4.0 km/h (1 Bft) O-SO 0.00 h 0 W/m 15.6 C 17.9 C 5.7 km/h (1 Bft)
02.08.2009 05:00 17.7 C 86 % 1009.6 hPa 0.0 l/m 5.5 km/h (1 Bft) O-SO 0.00 h 5 W/m 15.2 C 17.7 C 8.0 km/h (2 Bft)
02.08.2009 06:00 18.6 C 79 % 1009.9 hPa 0.0 l/m 1.4 km/h (1 Bft) S-SO 0.02 h 13 W/m 14.9 C 18.6 C 3.8 km/h (1 Bft)
02.08.2009 07:00 19.3 C 76 % 1010.2 hPa 0.0 l/m 2.0 km/h (1 Bft) S-SO 0.00 h 26 W/m 15.0 C 19.3 C 4.0 km/h (1 Bft)
02.08.2009 08:00 19.7 C 79 % 1010.9 hPa 1.8 l/m 1.8 km/h (1 Bft) W-NW 0.00 h 49 W/m 15.8 C 19.7 C 3.6 km/h (1 Bft)
02.08.2009 09:00 18.9 C 89 % 1011.7 hPa 0.0 l/m 3.4 km/h (1 Bft) W 0.00 h 122 W/m 17.0 C 18.9 C 6.1 km/h (2 Bft)
02.08.2009 10:00 18.3 C 90 % 1012.5 hPa 0.0 l/m 3.3 km/h (1 Bft) W 0.00 h 68 W/m 16.5 C 18.3 C 6.3 km/h (2 Bft)
02.08.2009 11:00 18.2 C 90 % 1012.9 hPa 1.8 l/m 1.0 km/h (0 Bft) S-SO 0.00 h 42 W/m 16.6 C 18.2 C 2.9 km/h (1 Bft)
02.08.2009 12:00 17.9 C 93 % 1013.5 hPa 1.8 l/m 1.3 km/h (1 Bft) S-SO 0.00 h 41 W/m 16.7 C 17.9 C 2.7 km/h (1 Bft)
02.08.2009 13:00 17.6 C 93 % 1014.0 hPa 0.6 l/m 2.3 km/h (1 Bft) S-SO 0.00 h 65 W/m 16.4 C 17.6 C 4.7 km/h (1 Bft)
02.08.2009 14:00 17.5 C 91 % 1014.1 hPa 0.4 l/m 2.2 km/h (1 Bft) SO 0.00 h 142 W/m 15.9 C 17.5 C 4.2 km/h (1 Bft)
02.08.2009 15:00 18.3 C 91 % 1013.9 hPa 0.8 l/m 0.7 km/h (0 Bft) O-SO 0.13 h 350 W/m 16.8 C 18.3 C 2.2 km/h (1 Bft)
02.08.2009 16:00 19.3 C 89 % 1013.5 hPa 0.0 l/m 2.2 km/h (1 Bft) O-SO 0.35 h 366 W/m 17.5 C 19.3 C 4.1 km/h (1 Bft)
02.08.2009 17:00 19.8 C 88 % 1013.2 hPa 0.0 l/m 3.7 km/h (1 Bft) W-NW 0.30 h 279 W/m 17.8 C 19.8 C 6.2 km/h (2 Bft)
02.08.2009 18:00 20.0 C 86 % 1014.0 hPa 0.4 l/m 3.2 km/h (1 Bft) NW 0.13 h 75 W/m 17.6 C 20.0 C 5.4 km/h (1 Bft)
02.08.2009 19:00 19.3 C 87 % 1014.3 hPa 1.0 l/m 2.5 km/h (1 Bft) W 0.38 h 121 W/m 17.2 C 19.3 C 5.5 km/h (1 Bft)
02.08.2009 20:00 18.1 C 88 % 1014.6 hPa 0.0 l/m 2.2 km/h (1 Bft) SO 0.27 h 38 W/m 16.1 C 18.1 C 4.6 km/h (1 Bft)
02.08.2009 21:00 17.4 C 92 % 1015.3 hPa 2.8 l/m 1.7 km/h (1 Bft) W 0.00 h 0 W/m 16.0 C 17.4 C 3.5 km/h (1 Bft)
02.08.2009 22:00 16.6 C 93 % 1015.7 hPa 0.0 l/m 0.9 km/h (0 Bft) W 0.00 h 0 W/m 15.4 C 16.6 C 2.7 km/h (1 Bft)
02.08.2009 23:00 15.9 C 93 % 1016.0 hPa 0.0 l/m 2.4 km/h (1 Bft) W 0.00 h 0 W/m 14.8 C 15.9 C 5.0 km/h (1 Bft)
Min-Datum _ 30.07.09 29.07.09 02.08.09 - 27.07.09 - - - 31.07.09 27.07.09 27.07.09
_ Min-Zeit 21:10 16:55 03:00 - 00:00 - - - 07:31 06:27 00:02
Minimum _ 0.0 C 36 % 1007.4 hPa - 0.0 km/h (0 Bft) - - - 9.6 C 10.9 C 0.0 km/h (0 Bft)
Max-Datum _ 27.07.09 29.07.09 31.07.09 27.07.09 27.07.09 - 27.07.09 28.07.09 29.07.09 27.07.09 27.07.09
_ Max-Zeit 14:58 07:42 01:00 21:21 21:18 - 06:10 12:58 19:47 14:57 21:17
Maximum _ 29.8 C 98 % 1023.2 hPa 3.4 l/m 31.3 km/h
W (5 Bft)
- 0.02 h 960 W/m 19.3 C 29.8 C 46.9 km/h
W (6 Bft)
Durchschnitt _ 20.1 C 73 % 1016.6 hPa #21.0 l/m 2.9 km/h (1 Bft) W #65:26 h 361 W/m 14.4 C 20.1 C 5.4 km/h (1 Bft)
© Kaiko 2009